createdAt,value
2023-04-03T00:00:41.108Z,0.52
2023-04-03T00:01:41.187Z,0.53
2023-04-03T00:02:41.330Z,0.52
2023-04-03T00:03:41.192Z,0.53
2023-04-03T00:04:41.425Z,0.53
2023-04-03T00:05:41.167Z,0.52
2023-04-03T00:06:41.205Z,0.53
2023-04-03T00:07:40.229Z,0.52
2023-04-03T00:08:41.277Z,0.52
2023-04-03T00:09:41.296Z,0.53
2023-04-03T00:10:40.233Z,0.53
2023-04-03T00:11:41.216Z,0.54
2023-04-03T00:12:41.244Z,0.53
2023-04-03T00:13:41.305Z,0.54
2023-04-03T00:14:40.235Z,0.52
2023-04-03T00:15:41.263Z,0.53
2023-04-03T00:16:41.302Z,0.53
2023-04-03T00:17:41.234Z,0.53
2023-04-03T00:18:41.255Z,0.53
2023-04-03T00:19:40.288Z,0.53
2023-04-03T00:20:41.425Z,0.52
2023-04-03T00:21:41.425Z,0.52
2023-04-03T00:22:41.344Z,0.52
2023-04-03T00:23:41.270Z,0.53
2023-04-03T00:24:41.336Z,0.53
2023-04-03T00:25:41.339Z,0.53
2023-04-03T00:26:41.316Z,0.54
2023-04-03T00:27:41.391Z,0.53
2023-04-03T00:28:41.320Z,0.52
2023-04-03T00:29:41.377Z,0.52
2023-04-03T00:30:41.291Z,0.52
2023-04-03T00:31:41.329Z,0.52
2023-04-03T00:32:41.358Z,0.52
2023-04-03T00:33:41.366Z,0.53
2023-04-03T00:34:40.272Z,0.53
2023-04-03T00:35:41.349Z,0.53
2023-04-03T00:36:41.425Z,0.54
2023-04-03T00:37:41.307Z,0.53
2023-04-03T00:38:40.317Z,0.53
2023-04-03T00:39:41.308Z,0.53
2023-04-03T00:40:41.367Z,0.52
2023-04-03T00:41:41.338Z,0.53
2023-04-03T00:42:41.347Z,0.53
2023-04-03T00:43:41.357Z,0.52
2023-04-03T00:44:41.372Z,0.52
2023-04-03T00:45:41.416Z,0.52
2023-04-03T00:46:40.513Z,0.52
2023-04-03T00:47:41.412Z,0.52
2023-04-03T00:48:40.417Z,0.52
2023-04-03T00:49:41.413Z,0.52
2023-04-03T00:50:41.420Z,0.53
2023-04-03T00:51:41.461Z,0.53
2023-04-03T00:52:41.445Z,0.53
2023-04-03T00:53:41.445Z,0.52
2023-04-03T00:54:41.451Z,0.52
2023-04-03T00:55:40.481Z,0.52
2023-04-03T00:56:41.471Z,0.53
2023-04-03T00:57:41.509Z,0.51
2023-04-03T00:58:41.501Z,0.52
2023-04-03T00:59:41.536Z,0.52
2023-04-03T01:00:41.597Z,0.53
2023-04-03T01:01:41.641Z,0.52
2023-04-03T01:02:40.663Z,0.52
2023-04-03T01:03:40.605Z,0.53
2023-04-03T01:04:40.837Z,0.53
2023-04-03T01:05:41.717Z,0.52
2023-04-03T01:06:41.696Z,0.53
2023-04-03T01:07:41.684Z,0.52
2023-04-03T01:08:41.656Z,0.52
2023-04-03T01:09:41.671Z,0.52
2023-04-03T01:10:40.733Z,0.52
2023-04-03T01:11:41.704Z,0.52
2023-04-03T01:12:46.584Z,0.53
2023-04-03T01:13:41.730Z,0.53
2023-04-03T01:14:41.694Z,0.53
2023-04-03T01:15:41.785Z,0.54
2023-04-03T01:16:41.773Z,0.53
2023-04-03T01:17:40.767Z,0.53
2023-04-03T01:18:41.731Z,0.54
2023-04-03T01:19:41.718Z,0.53
2023-04-03T01:20:41.757Z,0.53
2023-04-03T01:21:41.760Z,0.53
2023-04-03T01:22:41.718Z,0.52
2023-04-03T01:23:41.713Z,0.53
2023-04-03T01:24:41.741Z,0.53
2023-04-03T01:25:41.667Z,0.53
2023-04-03T01:26:41.630Z,0.53
2023-04-03T01:27:41.614Z,0.54
2023-04-03T01:28:41.703Z,0.52
2023-04-03T01:29:41.607Z,0.52
2023-04-03T01:30:41.605Z,0.53
2023-04-03T01:31:41.664Z,0.54
2023-04-03T01:32:41.605Z,0.53
2023-04-03T01:33:41.578Z,0.52
2023-04-03T01:34:40.554Z,0.52
2023-04-03T01:35:40.604Z,0.53
2023-04-03T01:36:40.535Z,0.52
2023-04-03T01:37:41.535Z,0.52
2023-04-03T01:38:41.566Z,0.52
2023-04-03T01:39:41.549Z,0.52
2023-04-03T01:40:41.547Z,0.52
2023-04-03T01:41:41.490Z,0.52
2023-04-03T01:42:40.512Z,0.52
2023-04-03T01:43:41.490Z,0.51
2023-04-03T01:44:41.476Z,0.53
2023-04-03T01:45:41.506Z,0.53
2023-04-03T01:46:41.453Z,0.53
2023-04-03T01:47:41.502Z,0.52
2023-04-03T01:48:41.437Z,0.53
2023-04-03T01:49:41.470Z,0.52
2023-04-03T01:50:41.500Z,0.53
2023-04-03T01:51:41.455Z,0.53
2023-04-03T01:52:41.451Z,0.52
2023-04-03T01:53:41.443Z,0.51
2023-04-03T01:54:41.428Z,0.52
2023-04-03T01:55:41.417Z,0.51
2023-04-03T01:56:41.523Z,0.52
2023-04-03T01:57:41.583Z,0.52
2023-04-03T01:58:40.434Z,0.52
2023-04-03T01:59:40.430Z,0.52
2023-04-03T02:00:41.406Z,0.52
2023-04-03T02:01:41.450Z,0.52
2023-04-03T02:02:40.458Z,0.52
2023-04-03T02:03:41.430Z,0.51
2023-04-03T02:04:41.382Z,0.52
2023-04-03T02:05:41.311Z,0.51
2023-04-03T02:06:41.327Z,0.51
2023-04-03T02:07:41.333Z,0.52
2023-04-03T02:08:41.323Z,0.53
2023-04-03T02:09:41.314Z,0.52
2023-04-03T02:10:41.338Z,0.52
2023-04-03T02:11:40.387Z,0.52
2023-04-03T02:12:40.392Z,0.51
2023-04-03T02:13:41.399Z,0.52
2023-04-03T02:14:41.446Z,0.51
2023-04-03T02:15:40.478Z,0.51
2023-04-03T02:16:41.524Z,0.51
2023-04-03T02:17:40.573Z,0.52
2023-04-03T02:18:41.581Z,0.52
2023-04-03T02:19:40.598Z,0.52
2023-04-03T02:20:41.680Z,0.50
2023-04-03T02:21:41.710Z,0.51
2023-04-03T02:22:41.704Z,0.52
2023-04-03T02:23:41.741Z,0.52
2023-04-03T02:24:41.777Z,0.52
2023-04-03T02:25:41.811Z,0.52
2023-04-03T02:26:41.824Z,0.52
2023-04-03T02:27:40.920Z,0.52
2023-04-03T02:28:41.837Z,0.52
2023-04-03T02:29:40.918Z,0.52
2023-04-03T02:30:41.904Z,0.53
2023-04-03T02:31:41.929Z,0.53
2023-04-03T02:32:42.033Z,0.52
2023-04-03T02:33:41.015Z,0.52
2023-04-03T02:34:42.031Z,0.51
2023-04-03T02:35:42.080Z,0.51
2023-04-03T02:36:42.100Z,0.51
2023-04-03T02:37:41.000Z,0.51
2023-04-03T02:38:42.034Z,0.51
2023-04-03T02:39:41.051Z,0.52
2023-04-03T02:40:41.076Z,0.51
2023-04-03T02:41:42.131Z,0.52
2023-04-03T02:42:41.139Z,0.52
2023-04-03T02:43:42.195Z,0.52
2023-04-03T02:44:42.210Z,0.51
2023-04-03T02:45:41.234Z,0.52
2023-04-03T02:46:42.305Z,0.51
2023-04-03T02:47:41.404Z,0.53
2023-04-03T02:48:42.315Z,0.52
2023-04-03T02:49:41.392Z,0.52
2023-04-03T02:50:42.454Z,0.52
2023-04-03T02:51:41.530Z,0.52
2023-04-03T02:52:42.437Z,0.53
2023-04-03T02:53:42.486Z,0.52
2023-04-03T02:54:41.454Z,0.52
2023-04-03T02:55:42.499Z,0.51
2023-04-03T02:56:42.458Z,0.52
2023-04-03T02:57:42.489Z,0.52
2023-04-03T02:58:42.548Z,0.52
2023-04-03T02:59:42.563Z,0.52
2023-04-03T03:00:42.555Z,0.51
2023-04-03T03:01:41.704Z,0.52
2023-04-03T03:02:42.677Z,0.51
2023-04-03T03:03:41.640Z,0.51
2023-04-03T03:04:42.808Z,0.51
2023-04-03T03:05:42.904Z,0.52
2023-04-03T03:06:43.617Z,0.51
2023-04-03T03:07:42.714Z,0.52
2023-04-03T03:08:42.742Z,0.52
2023-04-03T03:09:42.708Z,0.53
2023-04-03T03:10:42.742Z,0.53
2023-04-03T03:11:42.695Z,0.52
2023-04-03T03:12:41.687Z,0.52
2023-04-03T03:13:43.173Z,0.53
2023-04-03T03:14:41.675Z,0.52
2023-04-03T03:15:41.705Z,0.52
2023-04-03T03:16:42.659Z,0.51
2023-04-03T03:17:41.781Z,0.51
2023-04-03T03:18:42.659Z,0.52
2023-04-03T03:19:42.710Z,0.52
2023-04-03T03:20:42.653Z,0.51
2023-04-03T03:21:43.526Z,0.52
2023-04-03T03:22:42.637Z,0.51
2023-04-03T03:23:42.612Z,0.51
2023-04-03T03:24:42.633Z,0.51
2023-04-03T03:25:42.628Z,0.52
2023-04-03T03:26:42.590Z,0.52
2023-04-03T03:27:41.581Z,0.52
2023-04-03T03:28:42.590Z,0.52
2023-04-03T03:29:41.559Z,0.52
2023-04-03T03:30:41.558Z,0.51
2023-04-03T03:31:42.581Z,0.50
2023-04-03T03:32:42.574Z,0.52
2023-04-03T03:33:41.530Z,0.51
2023-04-03T03:34:42.588Z,0.52
2023-04-03T03:35:42.569Z,0.52
2023-04-03T03:36:41.562Z,0.50
2023-04-03T03:37:42.571Z,0.50
2023-04-03T03:38:41.641Z,0.50
2023-04-03T03:39:41.613Z,0.52
2023-04-03T03:40:41.724Z,0.52
2023-04-03T03:41:41.637Z,0.50
2023-04-03T03:42:41.673Z,0.52
2023-04-03T03:43:42.735Z,0.51
2023-04-03T03:44:42.741Z,0.52
2023-04-03T03:45:42.779Z,0.51
2023-04-03T03:46:42.847Z,0.51
2023-04-03T03:47:42.905Z,0.51
2023-04-03T03:48:42.895Z,0.51
2023-04-03T03:49:42.938Z,0.52
2023-04-03T03:50:43.037Z,0.52
2023-04-03T03:51:43.021Z,0.51
2023-04-03T03:52:43.069Z,0.52
2023-04-03T03:53:42.163Z,0.52
2023-04-03T03:54:42.213Z,0.51
2023-04-03T03:55:42.212Z,0.53
2023-04-03T03:56:43.207Z,0.50
2023-04-03T03:57:43.232Z,0.52
2023-04-03T03:58:42.254Z,0.52
2023-04-03T03:59:42.296Z,0.52
2023-04-03T04:00:43.329Z,0.52
2023-04-03T04:01:43.389Z,0.51
2023-04-03T04:02:43.477Z,0.53
2023-04-03T04:03:42.585Z,0.50
2023-04-03T04:04:43.524Z,0.53
2023-04-03T04:05:43.498Z,0.52
2023-04-03T04:06:43.545Z,0.50
2023-04-03T04:07:43.578Z,0.52
2023-04-03T04:08:43.608Z,0.51
2023-04-03T04:09:43.654Z,0.52
2023-04-03T04:10:42.708Z,0.52
2023-04-03T04:11:43.737Z,0.50
2023-04-03T04:12:43.906Z,0.52
2023-04-03T04:13:43.819Z,0.52
2023-04-03T04:14:43.844Z,0.52
2023-04-03T04:15:43.929Z,0.52
2023-04-03T04:16:43.980Z,0.52
2023-04-03T04:17:44.055Z,0.53
2023-04-03T04:18:44.047Z,0.52
2023-04-03T04:19:43.126Z,0.53
2023-04-03T04:20:44.097Z,0.51
2023-04-03T04:21:44.275Z,0.51
2023-04-03T04:22:44.218Z,0.52
2023-04-03T04:23:44.262Z,0.52
2023-04-03T04:24:44.248Z,0.52
2023-04-03T04:25:44.289Z,0.52
2023-04-03T04:26:44.308Z,0.51
2023-04-03T04:27:44.445Z,0.51
2023-04-03T04:28:44.466Z,0.52
2023-04-03T04:29:43.392Z,0.51
2023-04-03T04:30:44.513Z,0.52
2023-04-03T04:31:44.501Z,0.51
2023-04-03T04:32:44.581Z,0.51
2023-04-03T04:33:43.562Z,0.51
2023-04-03T04:34:44.662Z,0.52
2023-04-03T04:35:44.728Z,0.53
2023-04-03T04:36:44.750Z,0.53
2023-04-03T04:37:44.689Z,0.51
2023-04-03T04:38:43.755Z,0.52
2023-04-03T04:39:44.787Z,0.51
2023-04-03T04:40:44.843Z,0.51
2023-04-03T04:41:44.924Z,0.52
2023-04-03T04:42:43.921Z,0.50
2023-04-03T04:43:44.073Z,0.51
2023-04-03T04:44:45.004Z,0.51
2023-04-03T04:45:44.057Z,0.52
2023-04-03T04:46:45.271Z,0.52
2023-04-03T04:47:45.252Z,0.52
2023-04-03T04:48:44.227Z,0.52
2023-04-03T04:49:45.307Z,0.51
2023-04-03T04:50:45.300Z,0.52
2023-04-03T04:51:52.083Z,0.52
2023-04-03T04:52:45.314Z,0.52
2023-04-03T04:53:44.377Z,0.52
2023-04-03T04:54:45.296Z,0.52
2023-04-03T04:55:44.360Z,0.52
2023-04-03T04:56:45.353Z,0.51
2023-04-03T04:57:45.314Z,0.52
2023-04-03T04:58:44.300Z,0.51
2023-04-03T04:59:45.422Z,0.52
2023-04-03T05:00:45.263Z,0.52
2023-04-03T05:01:45.282Z,0.51
2023-04-03T05:02:45.229Z,0.51
2023-04-03T05:03:44.231Z,0.51
2023-04-03T05:04:45.230Z,0.52
2023-04-03T05:05:45.219Z,0.51
2023-04-03T05:06:45.199Z,0.53
2023-04-03T05:07:45.212Z,0.52
2023-04-03T05:08:45.167Z,0.51
2023-04-03T05:09:44.252Z,0.51
2023-04-03T05:10:45.180Z,0.51
2023-04-03T05:11:44.286Z,0.50
2023-04-03T05:12:45.246Z,0.52
2023-04-03T05:13:45.154Z,0.51
2023-04-03T05:14:45.150Z,0.53
2023-04-03T05:15:44.173Z,0.52
2023-04-03T05:16:44.137Z,0.52
2023-04-03T05:17:45.155Z,0.53
2023-04-03T05:18:45.120Z,0.52
2023-04-03T05:19:44.099Z,0.53
2023-04-03T05:20:45.119Z,0.52
2023-04-03T05:21:45.088Z,0.53
2023-04-03T05:22:45.077Z,0.52
2023-04-03T05:23:45.154Z,0.51
2023-04-03T05:24:44.182Z,0.52
2023-04-03T05:25:45.266Z,0.51
2023-04-03T05:26:45.333Z,0.52
2023-04-03T05:27:45.344Z,0.52
2023-04-03T05:28:44.355Z,0.52
2023-04-03T05:29:45.518Z,0.51
2023-04-03T05:30:45.440Z,0.51
2023-04-03T05:31:45.559Z,0.52
2023-04-03T05:32:45.549Z,0.53
2023-04-03T05:33:44.553Z,0.53
2023-04-03T05:34:45.596Z,0.51
2023-04-03T05:35:45.664Z,0.52
2023-04-03T05:36:45.679Z,0.52
2023-04-03T05:37:45.768Z,0.52
2023-04-03T05:38:44.761Z,0.52
2023-04-03T05:39:44.875Z,0.53
2023-04-03T05:40:45.893Z,0.52
2023-04-03T05:41:45.906Z,0.52
2023-04-03T05:42:45.968Z,0.51
2023-04-03T05:43:46.001Z,0.51
2023-04-03T05:44:45.042Z,0.52
2023-04-03T05:45:47.005Z,0.51
2023-04-03T05:46:46.242Z,0.51
2023-04-03T05:47:46.248Z,0.51
2023-04-03T05:48:45.238Z,0.51
2023-04-03T05:49:46.287Z,0.51
2023-04-03T05:50:45.345Z,0.51
2023-04-03T05:51:46.397Z,0.51
2023-04-03T05:52:46.427Z,0.51
2023-04-03T05:53:46.474Z,0.52
2023-04-03T05:54:46.531Z,0.51
2023-04-03T05:55:46.637Z,0.51
2023-04-03T05:56:45.641Z,0.52
2023-04-03T05:57:46.678Z,0.51
2023-04-03T05:58:45.737Z,0.51
2023-04-03T05:59:46.773Z,0.51
2023-04-03T06:00:46.858Z,0.53
2023-04-03T06:01:46.896Z,0.53
2023-04-03T06:02:47.106Z,0.51
2023-04-03T06:03:47.190Z,0.51
2023-04-03T06:04:46.135Z,0.53
2023-04-03T06:05:47.119Z,0.51
2023-04-03T06:06:47.158Z,0.51
2023-04-03T06:07:47.221Z,0.52
2023-04-03T06:08:46.258Z,0.52
2023-04-03T06:09:47.319Z,0.52
2023-04-03T06:10:47.402Z,0.53
2023-04-03T06:11:47.416Z,0.51
2023-04-03T06:12:47.377Z,0.52
2023-04-03T06:13:46.436Z,0.52
2023-04-03T06:14:47.568Z,0.52
2023-04-03T06:15:47.586Z,0.51
2023-04-03T06:16:47.629Z,0.52
2023-04-03T06:17:46.715Z,0.52
2023-04-03T06:18:47.683Z,0.51
2023-04-03T06:19:46.734Z,0.51
2023-04-03T06:20:47.721Z,0.52
2023-04-03T06:21:48.025Z,0.50
2023-04-03T06:22:47.822Z,0.52
2023-04-03T06:23:47.911Z,0.51
2023-04-03T06:24:47.973Z,0.52
2023-04-03T06:25:47.980Z,0.53
2023-04-03T06:26:48.216Z,0.52
2023-04-03T06:27:47.077Z,0.51
2023-04-03T06:28:48.144Z,0.52
2023-04-03T06:29:48.193Z,0.51
2023-04-03T06:30:47.319Z,0.52
2023-04-03T06:31:47.306Z,0.52
2023-04-03T06:32:49.102Z,0.51
2023-04-03T06:33:48.493Z,0.51
2023-04-03T06:34:48.506Z,0.52
2023-04-03T06:35:48.570Z,0.51
2023-04-03T06:36:48.598Z,0.50
2023-04-03T06:37:48.531Z,0.51
2023-04-03T06:38:48.568Z,0.51
2023-04-03T06:39:48.620Z,0.51
2023-04-03T06:40:47.706Z,0.51
2023-04-03T06:41:48.746Z,0.52
2023-04-03T06:42:47.784Z,0.52
2023-04-03T06:43:47.871Z,0.53
2023-04-03T06:44:48.914Z,0.52
2023-04-03T06:45:47.977Z,0.52
2023-04-03T06:46:49.150Z,0.51
2023-04-03T06:47:48.224Z,0.53
2023-04-03T06:48:49.190Z,0.53
2023-04-03T06:49:49.292Z,0.52
2023-04-03T06:50:49.463Z,0.53
2023-04-03T06:51:49.384Z,0.52
2023-04-03T06:52:49.455Z,0.53
2023-04-03T06:53:49.392Z,0.52
2023-04-03T06:54:49.436Z,0.53
2023-04-03T06:55:49.558Z,0.53
2023-04-03T06:56:49.681Z,0.52
2023-04-03T06:57:49.700Z,0.51
2023-04-03T06:58:48.670Z,0.53
2023-04-03T06:59:49.793Z,0.52
2023-04-03T07:00:49.815Z,0.52
2023-04-03T07:01:48.916Z,0.52
2023-04-03T07:02:50.019Z,0.52
2023-04-03T07:03:49.910Z,0.51
2023-04-03T07:04:50.126Z,0.52
2023-04-03T07:05:49.043Z,0.52
2023-04-03T07:06:50.106Z,0.52
2023-04-03T07:07:49.150Z,0.53
2023-04-03T07:08:50.252Z,0.51
2023-04-03T07:09:50.269Z,0.52
2023-04-03T07:10:50.304Z,0.53
2023-04-03T07:11:50.399Z,0.53
2023-04-03T07:12:50.474Z,0.51
2023-04-03T07:13:49.414Z,0.54
2023-04-03T07:14:50.644Z,0.53
2023-04-03T07:15:50.565Z,0.51
2023-04-03T07:16:49.563Z,0.51
2023-04-03T07:17:50.592Z,0.53
2023-04-03T07:18:50.619Z,0.52
2023-04-03T07:19:49.671Z,0.51
2023-04-03T07:20:50.946Z,0.51
2023-04-03T07:21:49.769Z,0.53
2023-04-03T07:22:50.857Z,0.53
2023-04-03T07:24:49.972Z,0.52
2023-04-03T07:25:50.997Z,0.52
2023-04-03T07:26:51.045Z,0.51
2023-04-03T07:27:50.115Z,0.52
2023-04-03T07:28:51.126Z,0.51
2023-04-03T07:29:51.195Z,0.52
2023-04-03T07:30:51.242Z,0.51
2023-04-03T07:31:51.446Z,0.52
2023-04-03T07:32:50.419Z,0.52
2023-04-03T07:33:51.548Z,0.51
2023-04-03T07:34:51.503Z,0.51
2023-04-03T07:35:51.557Z,0.51
2023-04-03T07:36:51.572Z,0.51
2023-04-03T07:37:51.625Z,0.52
2023-04-03T07:38:51.664Z,0.51
2023-04-03T07:39:51.785Z,0.51
2023-04-03T07:40:51.827Z,0.52
2023-04-03T07:41:51.747Z,0.52
2023-04-03T07:42:51.783Z,0.51
2023-04-03T07:43:51.858Z,0.53
2023-04-03T07:44:51.888Z,0.52
2023-04-03T07:45:52.070Z,0.51
2023-04-03T07:46:51.979Z,0.52
2023-04-03T07:47:52.071Z,0.52
2023-04-03T07:48:52.096Z,0.52
2023-04-03T07:49:52.110Z,0.52
2023-04-03T07:50:51.342Z,0.52
2023-04-03T07:51:52.287Z,0.51
2023-04-03T07:52:52.323Z,0.53
2023-04-03T07:53:51.336Z,0.53
2023-04-03T07:54:52.395Z,0.52
2023-04-03T07:55:52.452Z,0.51
2023-04-03T07:56:52.434Z,0.53
2023-04-03T07:57:52.481Z,0.53
2023-04-03T07:58:52.571Z,0.53
2023-04-03T07:59:52.610Z,0.51
2023-04-03T08:00:52.660Z,0.51
2023-04-03T08:01:52.763Z,0.52
2023-04-03T08:02:53.052Z,0.53
2023-04-03T08:03:52.986Z,0.51
2023-04-03T08:04:53.018Z,0.52
2023-04-03T08:05:52.932Z,0.51
2023-04-03T08:06:53.019Z,0.51
2023-04-03T08:07:53.008Z,0.53
2023-04-03T08:08:53.001Z,0.51
2023-04-03T08:09:52.031Z,0.53
2023-04-03T08:10:53.091Z,0.51
2023-04-03T08:11:53.126Z,0.51
2023-04-03T08:12:52.173Z,0.51
2023-04-03T08:13:53.744Z,0.53
2023-04-03T08:14:53.267Z,0.53
2023-04-03T08:15:52.331Z,0.51
2023-04-03T08:16:53.364Z,0.51
2023-04-03T08:17:53.448Z,0.52
2023-04-03T08:18:53.409Z,0.52
2023-04-03T08:19:53.474Z,0.52
2023-04-03T08:20:53.429Z,0.52
2023-04-03T08:21:53.479Z,0.52
2023-04-03T08:22:53.619Z,0.50
2023-04-03T08:23:52.640Z,0.52
2023-04-03T08:24:59.336Z,0.51
2023-04-03T08:25:53.628Z,0.51
2023-04-03T08:26:53.184Z,0.51
2023-04-03T08:27:52.583Z,0.51
2023-04-03T08:28:53.598Z,0.51
2023-04-03T08:29:53.644Z,0.50
2023-04-03T08:30:52.575Z,0.52
2023-04-03T08:31:53.524Z,0.51
2023-04-03T08:32:53.627Z,0.51
2023-04-03T08:33:53.511Z,0.51
2023-04-03T08:34:53.495Z,0.51
2023-04-03T08:35:53.608Z,0.50
2023-04-03T08:36:53.509Z,0.51
2023-04-03T08:37:53.519Z,0.52
2023-04-03T08:38:53.581Z,0.51
2023-04-03T08:39:53.466Z,0.52
2023-04-03T08:40:53.449Z,0.51
2023-04-03T08:41:53.437Z,0.52
2023-04-03T08:42:53.426Z,0.53
2023-04-03T08:43:53.451Z,0.50
2023-04-03T08:44:53.453Z,0.50
2023-04-03T08:45:53.448Z,0.53
2023-04-03T08:46:53.406Z,0.54
2023-04-03T08:47:54.608Z,0.53
2023-04-03T08:48:53.394Z,0.55
2023-04-03T08:49:53.604Z,0.55
2023-04-03T08:50:53.417Z,0.55
2023-04-03T08:51:53.482Z,0.54
2023-04-03T08:52:53.368Z,0.55
2023-04-03T08:53:53.365Z,0.55
2023-04-03T08:54:53.387Z,0.54
2023-04-03T08:55:53.369Z,0.55
2023-04-03T08:56:53.387Z,0.55
2023-04-03T08:57:53.349Z,0.56
2023-04-03T08:58:53.300Z,0.55
2023-04-03T08:59:53.357Z,0.53
2023-04-03T09:00:53.322Z,0.53
2023-04-03T09:01:53.370Z,0.52
2023-04-03T09:02:53.366Z,0.54
2023-04-03T09:03:53.288Z,0.55
2023-04-03T09:04:53.313Z,0.52
2023-04-03T09:05:53.262Z,0.53
2023-04-03T09:06:53.251Z,0.51
2023-04-03T09:07:52.352Z,0.54
2023-04-03T09:08:53.233Z,0.53
2023-04-03T09:09:53.473Z,0.53
2023-04-03T09:10:54.265Z,0.53
2023-04-03T09:11:53.237Z,0.53
2023-04-03T09:12:53.250Z,0.54
2023-04-03T09:13:53.244Z,0.53
2023-04-03T09:14:53.206Z,0.52
2023-04-03T09:15:53.261Z,0.54
2023-04-03T09:16:53.220Z,0.52
2023-04-03T09:17:53.438Z,0.53
2023-04-03T09:18:53.265Z,0.52
2023-04-03T09:19:53.255Z,0.52
2023-04-03T09:20:53.296Z,0.51
2023-04-03T09:21:53.340Z,0.51
2023-04-03T09:22:53.378Z,0.52
2023-04-03T09:23:53.510Z,0.51
2023-04-03T09:24:53.438Z,0.51
2023-04-03T09:25:53.477Z,0.51
2023-04-03T09:26:53.491Z,0.52
2023-04-03T09:27:53.498Z,0.52
2023-04-03T09:28:52.616Z,0.51
2023-04-03T09:29:53.569Z,0.51
2023-04-03T09:30:53.598Z,0.52
2023-04-03T09:31:53.680Z,0.52
2023-04-03T09:32:52.710Z,0.52
2023-04-03T09:33:53.739Z,0.51
2023-04-03T09:34:53.712Z,0.51
2023-04-03T09:35:53.785Z,0.52
2023-04-03T09:36:53.801Z,0.52
2023-04-03T09:37:53.824Z,0.51
2023-04-03T09:38:53.910Z,0.52
2023-04-03T09:39:54.118Z,0.51
2023-04-03T09:40:53.929Z,0.51
2023-04-03T09:41:53.974Z,0.54
2023-04-03T09:43:00.949Z,0.55
2023-04-03T09:43:54.082Z,0.55
2023-04-03T09:44:54.042Z,0.55
2023-04-03T09:45:54.063Z,0.53
2023-04-03T09:46:54.165Z,0.53
2023-04-03T09:47:54.032Z,0.52
2023-04-03T09:49:05.052Z,0.52
2023-04-03T09:49:53.948Z,0.52
2023-04-03T09:50:54.026Z,0.52
2023-04-03T09:51:52.978Z,0.52
2023-04-03T09:52:53.966Z,0.52
2023-04-03T09:53:53.956Z,0.53
2023-04-03T09:54:53.969Z,0.50
2023-04-03T09:55:54.025Z,0.51
2023-04-03T09:56:53.960Z,0.51
2023-04-03T09:57:53.923Z,0.51
2023-04-03T09:58:53.890Z,0.50
2023-04-03T09:59:53.886Z,0.51
2023-04-03T10:00:53.889Z,0.51
2023-04-03T10:01:53.868Z,0.51
2023-04-03T10:02:53.885Z,0.52
2023-04-03T10:03:52.855Z,0.51
2023-04-03T10:05:08.343Z,0.52
2023-04-03T10:05:53.848Z,0.52
2023-04-03T10:06:53.875Z,0.52
2023-04-03T10:08:01.653Z,0.52
2023-04-03T10:08:53.849Z,0.52
2023-04-03T10:09:53.922Z,0.52
2023-04-03T10:10:53.831Z,0.52
2023-04-03T10:11:53.939Z,0.53
2023-04-03T10:12:53.796Z,0.53
2023-04-03T10:13:53.772Z,0.52
2023-04-03T10:14:53.844Z,0.51
2023-04-03T10:15:53.801Z,0.50
2023-04-03T10:16:53.806Z,0.51
2023-04-03T10:17:53.786Z,0.51
2023-04-03T10:18:53.801Z,0.51
2023-04-03T10:19:53.729Z,0.51
2023-04-03T10:20:53.730Z,0.50
2023-04-03T10:21:53.737Z,0.51
2023-04-03T10:22:53.728Z,0.51
2023-04-03T10:23:52.804Z,0.52
2023-04-03T10:24:53.704Z,0.52
2023-04-03T10:25:52.731Z,0.52
2023-04-03T10:26:53.721Z,0.52
2023-04-03T10:27:53.823Z,0.51
2023-04-03T10:28:53.696Z,0.51
2023-04-03T10:29:53.661Z,0.51
2023-04-03T10:30:53.685Z,0.52
2023-04-03T10:31:53.634Z,0.53
2023-04-03T10:32:52.675Z,0.53
2023-04-03T10:33:53.662Z,0.54
2023-04-03T10:35:04.589Z,0.53
2023-04-03T10:35:53.696Z,0.53
2023-04-03T10:36:53.623Z,0.53
2023-04-03T10:37:53.590Z,0.52
2023-04-03T10:38:52.687Z,0.53
2023-04-03T10:39:53.572Z,0.53
2023-04-03T10:40:53.597Z,0.51
2023-04-03T10:41:57.990Z,0.51
2023-04-03T10:42:53.620Z,0.51
2023-04-03T10:43:52.613Z,0.51
2023-04-03T10:44:53.587Z,0.52
2023-04-03T10:45:52.599Z,0.52
2023-04-03T10:46:52.534Z,0.51
2023-04-03T10:47:53.562Z,0.51
2023-04-03T10:48:53.520Z,0.51
2023-04-03T10:49:59.327Z,0.52
2023-04-03T10:50:53.498Z,0.52
2023-04-03T10:51:52.490Z,0.52
2023-04-03T10:52:53.511Z,0.52
2023-04-03T10:53:52.541Z,0.51
2023-04-03T10:54:53.527Z,0.50
2023-04-03T10:55:53.488Z,0.50
2023-04-03T10:57:04.598Z,0.50
2023-04-03T10:57:53.524Z,0.51
2023-04-03T10:58:53.472Z,0.51
2023-04-03T10:59:52.577Z,0.51
2023-04-03T11:00:52.430Z,0.51
2023-04-03T11:01:53.527Z,0.53
2023-04-03T11:02:52.503Z,0.53
2023-04-03T11:03:52.485Z,0.53
2023-04-03T11:04:53.479Z,0.53
2023-04-03T11:05:53.382Z,0.53
2023-04-03T11:06:53.397Z,0.55
2023-04-03T11:07:52.386Z,0.53
2023-04-03T11:08:53.361Z,0.53
2023-04-03T11:09:52.366Z,0.54
2023-04-03T11:10:53.355Z,0.55
2023-04-03T11:11:53.325Z,0.54
2023-04-03T11:12:52.346Z,0.53
2023-04-03T11:13:52.317Z,0.52
2023-04-03T11:14:53.316Z,0.53
2023-04-03T11:15:53.451Z,0.53
2023-04-03T11:16:54.337Z,0.53
2023-04-03T11:17:53.356Z,0.54
2023-04-03T11:18:53.284Z,0.53
2023-04-03T11:19:53.266Z,0.54
2023-04-03T11:20:53.276Z,0.53
2023-04-03T11:21:53.281Z,0.53
2023-04-03T11:22:53.263Z,0.54
2023-04-03T11:23:53.298Z,0.54
2023-04-03T11:24:53.312Z,0.55
2023-04-03T11:25:53.354Z,0.53
2023-04-03T11:26:53.433Z,0.53
2023-04-03T11:27:53.432Z,0.53
2023-04-03T11:28:53.476Z,0.53
2023-04-03T11:29:53.473Z,0.52
2023-04-03T11:30:54.966Z,0.52
2023-04-03T11:31:52.637Z,0.54
2023-04-03T11:32:52.599Z,0.52
2023-04-03T11:33:53.514Z,0.52
2023-04-03T11:34:52.558Z,0.52
2023-04-03T11:35:53.511Z,0.52
2023-04-03T11:36:53.676Z,0.52
2023-04-03T11:37:52.504Z,0.53
2023-04-03T11:38:54.054Z,0.52
2023-04-03T11:39:53.447Z,0.53
2023-04-03T11:40:53.430Z,0.52
2023-04-03T11:42:03.263Z,0.53
2023-04-03T11:42:53.470Z,0.53
2023-04-03T11:43:53.436Z,0.53
2023-04-03T11:44:53.409Z,0.53
2023-04-03T11:45:53.397Z,0.53
2023-04-03T11:46:55.581Z,0.53
2023-04-03T11:47:52.609Z,0.52
2023-04-03T11:48:53.438Z,0.52
2023-04-03T11:49:53.363Z,0.52
2023-04-03T11:50:52.375Z,0.51
2023-04-03T11:51:53.405Z,0.50
2023-04-03T11:52:53.363Z,0.51
2023-04-03T11:53:53.382Z,0.51
2023-04-03T11:54:52.382Z,0.52
2023-04-03T11:55:53.346Z,0.51
2023-04-03T11:56:52.365Z,0.52
2023-04-03T11:57:53.320Z,0.51
2023-04-03T11:58:52.321Z,0.52
2023-04-03T11:59:53.374Z,0.51
2023-04-03T12:00:53.320Z,0.52
2023-04-03T12:01:52.339Z,0.50
2023-04-03T12:02:54.773Z,0.52
2023-04-03T12:03:53.507Z,0.51
2023-04-03T12:04:53.277Z,0.54
2023-04-03T12:05:53.281Z,0.54
2023-04-03T12:06:53.500Z,0.54
2023-04-03T12:07:53.242Z,0.53
2023-04-03T12:08:53.380Z,0.54
2023-04-03T12:09:53.229Z,0.53
2023-04-03T12:10:53.603Z,0.54
2023-04-03T12:11:53.316Z,0.53
2023-04-03T12:12:53.254Z,0.54
2023-04-03T12:13:52.221Z,0.54
2023-04-03T12:14:53.497Z,0.57
2023-04-03T12:15:53.455Z,0.56
2023-04-03T12:16:53.237Z,0.57
2023-04-03T12:17:54.079Z,0.57
2023-04-03T12:18:53.522Z,0.57
2023-04-03T12:19:52.391Z,0.56
2023-04-03T12:20:53.283Z,0.56
2023-04-03T12:21:53.341Z,0.57
2023-04-03T12:22:53.415Z,0.56
2023-04-03T12:23:53.378Z,0.57
2023-04-03T12:24:53.202Z,0.57
2023-04-03T12:25:53.093Z,0.58
2023-04-03T12:26:53.110Z,0.57
2023-04-03T12:27:52.096Z,0.59
2023-04-03T12:28:53.116Z,0.60
2023-04-03T12:29:52.145Z,0.60
2023-04-03T12:30:52.196Z,0.59
2023-04-03T12:31:53.433Z,0.59
2023-04-03T12:33:05.691Z,0.58
2023-04-03T12:33:53.657Z,0.59
2023-04-03T12:34:53.443Z,0.59
2023-04-03T12:35:53.433Z,0.59
2023-04-03T12:36:53.449Z,0.59
2023-04-03T12:37:53.386Z,0.60
2023-04-03T12:38:53.344Z,0.59
2023-04-03T12:39:53.278Z,0.60
2023-04-03T12:40:53.301Z,0.60
2023-04-03T12:41:53.447Z,0.59
2023-04-03T12:42:53.468Z,0.59
2023-04-03T12:43:53.367Z,0.59
2023-04-03T12:44:53.462Z,0.58
2023-04-03T12:45:52.363Z,0.58
2023-04-03T12:46:53.332Z,0.57
2023-04-03T12:47:53.462Z,0.59
2023-04-03T12:48:52.156Z,0.59
2023-04-03T12:49:53.293Z,0.59
2023-04-03T12:50:53.575Z,0.59
2023-04-03T12:51:53.266Z,0.59
2023-04-03T12:52:52.458Z,0.60
2023-04-03T12:53:52.349Z,0.58
2023-04-03T12:54:53.192Z,0.59
2023-04-03T12:55:53.223Z,0.58
2023-04-03T12:56:53.066Z,0.59
2023-04-03T12:57:52.026Z,0.59
2023-04-03T12:58:53.019Z,0.61
2023-04-03T12:59:53.049Z,0.60
2023-04-03T13:00:52.995Z,0.59
2023-04-03T13:01:53.035Z,0.58
2023-04-03T13:02:53.084Z,0.58
2023-04-03T13:03:52.287Z,0.59
2023-04-03T13:04:53.364Z,0.59
2023-04-03T13:05:52.989Z,0.59
2023-04-03T13:06:52.992Z,0.57
2023-04-03T13:07:53.139Z,0.57
2023-04-03T13:08:52.056Z,0.57
2023-04-03T13:09:53.096Z,0.59
2023-04-03T13:10:53.098Z,0.57
2023-04-03T13:11:53.498Z,0.58
2023-04-03T13:12:53.798Z,0.58
2023-04-03T13:13:53.588Z,0.58
2023-04-03T13:14:53.442Z,0.58
2023-04-03T13:15:53.456Z,0.59
2023-04-03T13:16:53.443Z,0.59
2023-04-03T13:17:53.851Z,0.59
2023-04-03T13:18:53.680Z,0.59
2023-04-03T13:19:53.558Z,0.58